Time;durP1;ratioP1;P1;durP2;ratioP2;P2;SDS_P1;SDS_P2;PMS_P1;PMS_P2;Temp;Humidity;BMP_temperature;BMP_pressure;BME280_temperature;BME280_humidity;BME280_pressure;Samples;Min_cycle;Max_cycle;Signal;HPM_P1;HPM_P2
2022/12/22 03:27:01;;;;;;;17.20;10.70;;;7.00;99.90;;;;;;5068011;28;20669;-73
2022/12/22 03:29:30;;;;;;;17.40;11.77;;;7.00;99.90;;;;;;5068072;28;20579;-73
2022/12/22 03:31:59;;;;;;;16.90;12.67;;;7.00;99.90;;;;;;5067993;28;20564;-73
2022/12/22 03:34:29;;;;;;;17.03;11.47;;;7.00;99.90;;;;;;5068152;28;21013;-74
2022/12/22 03:36:58;;;;;;;16.00;11.50;;;6.90;99.90;;;;;;5067931;28;20191;-73
2022/12/22 03:39:27;;;;;;;17.53;12.50;;;7.00;99.90;;;;;;5067907;28;20230;-73
2022/12/22 03:47:28;;;;;;;16.33;11.60;;;7.20;99.90;;;;;;5070598;28;20265;-74
2022/12/22 03:49:59;;;;;;;17.80;12.30;;;7.20;99.90;;;;;;5071377;28;20674;-74
2022/12/22 03:52:28;;;;;;;17.23;12.97;;;7.30;99.90;;;;;;5071311;28;20208;-75
2022/12/22 03:54:57;;;;;;;20.17;13.07;;;7.20;99.90;;;;;;5071059;28;20725;-73
2022/12/22 03:57:26;;;;;;;19.20;13.17;;;7.30;99.90;;;;;;5071113;28;20257;-73
2022/12/22 03:59:55;;;;;;;22.10;14.27;;;7.20;99.90;;;;;;5071209;28;20196;-74
2022/12/22 04:02:23;;;;;;;33.13;19.93;;;7.20;99.90;;;;;;5071087;28;20189;-73
2022/12/22 04:04:52;;;;;;;17.83;13.43;;;7.20;99.90;;;;;;5071028;28;20633;-74
2022/12/22 04:07:23;;;;;;;18.20;13.10;;;7.10;99.90;;;;;;5070873;28;20241;-74
2022/12/22 04:15:20;;;;;;;20.63;13.57;;;7.00;99.90;;;;;;5112270;28;20692;-74
2022/12/22 04:17:50;;;;;;;18.53;13.27;;;6.90;99.90;;;;;;5095295;28;20235;-74
2022/12/22 04:20:20;;;;;;;21.97;13.60;;;6.90;99.90;;;;;;5112521;28;20563;-75
2022/12/22 04:22:50;;;;;;;21.17;13.40;;;7.00;99.90;;;;;;5112384;28;20282;-74
2022/12/22 04:25:19;;;;;;;21.10;13.43;;;7.00;99.90;;;;;;5112372;28;20214;-73
2022/12/22 04:27:48;;;;;;;18.07;13.40;;;6.90;99.90;;;;;;5112186;28;20258;-75
2022/12/22 04:30:18;;;;;;;23.50;14.83;;;7.00;99.90;;;;;;5112076;28;20234;-74
2022/12/22 04:32:46;;;;;;;21.00;14.23;;;7.00;99.90;;;;;;5112211;28;20207;-74
2022/12/22 04:35:15;;;;;;;19.87;13.37;;;6.90;99.90;;;;;;5112103;28;20226;-75
2022/12/22 04:37:44;;;;;;;24.53;14.60;;;6.90;99.90;;;;;;5112176;28;20227;-74
2022/12/22 04:40:15;;;;;;;21.20;14.17;;;6.90;99.90;;;;;;5112160;28;20223;-74
2022/12/22 04:42:44;;;;;;;23.33;14.00;;;6.90;99.90;;;;;;5112154;28;20669;-75
2022/12/22 04:45:12;;;;;;;22.47;13.53;;;6.90;99.90;;;;;;5112112;28;20667;-73
2022/12/22 04:47:41;;;;;;;23.50;13.67;;;6.90;99.90;;;;;;5112045;28;20320;-74
2022/12/22 04:50:11;;;;;;;22.77;15.40;;;6.90;99.90;;;;;;5087296;28;20604;-75
2022/12/22 04:52:40;;;;;;;22.07;14.97;;;7.00;99.90;;;;;;5140172;27;20205;-75
2022/12/22 04:55:09;;;;;;;22.47;14.37;;;7.00;99.90;;;;;;5139655;27;20225;-74
2022/12/22 04:57:40;;;;;;;22.20;14.33;;;7.00;99.90;;;;;;5069907;28;20205;-74
2022/12/22 05:00:11;;;;;;;19.07;14.43;;;7.00;99.90;;;;;;5139802;27;20732;-74
2022/12/22 05:02:39;;;;;;;25.90;15.60;;;7.00;99.90;;;;;;5140007;27;20194;-74
2022/12/22 05:05:09;;;;;;;21.90;15.23;;;7.00;99.90;;;;;;5070289;28;20973;-74
2022/12/22 05:07:38;;;;;;;25.43;15.27;;;7.00;99.90;;;;;;5070117;28;20197;-73
2022/12/22 05:10:08;;;;;;;24.07;15.57;;;6.90;99.90;;;;;;5070044;28;20202;-73
2022/12/22 05:12:57;;;;;;;23.20;15.77;;;6.90;99.90;;;;;;5070229;27;20668;-74
2022/12/22 05:15:28;;;;;;;23.40;15.83;;;6.90;99.90;;;;;;5069959;27;20229;-74
2022/12/22 05:17:57;;;;;;;27.33;17.23;;;6.90;99.90;;;;;;5139598;27;20564;-74
2022/12/22 05:20:27;;;;;;;27.43;17.33;;;6.90;99.90;;;;;;5069893;28;20218;-74
2022/12/22 05:22:56;;;;;;;29.77;17.93;;;6.90;99.90;;;;;;5069902;28;20197;-75
2022/12/22 05:25:26;;;;;;;26.77;16.93;;;6.80;99.90;;;;;;5069824;28;20260;-74
2022/12/22 05:28:02;;;;;;;29.67;16.97;;;6.80;99.90;;;;;;5069856;28;20200;-75
2022/12/22 05:30:31;;;;;;;26.30;17.10;;;6.80;99.90;;;;;;5069787;28;20204;-74
2022/12/22 05:33:00;;;;;;;29.67;17.37;;;6.90;99.90;;;;;;5069561;28;20193;-74
2022/12/22 05:35:29;;;;;;;28.13;17.03;;;6.90;99.90;;;;;;5069566;28;20623;-73
2022/12/22 05:37:58;;;;;;;29.77;17.57;;;7.00;99.90;;;;;;5069519;28;20196;-74
2022/12/22 05:40:27;;;;;;;27.13;17.60;;;7.00;99.90;;;;;;5069407;28;20535;-75
2022/12/22 05:42:56;;;;;;;27.67;19.20;;;7.00;99.90;;;;;;5069535;28;20232;-74
2022/12/22 05:45:26;;;;;;;28.80;18.17;;;7.00;99.90;;;;;;5069399;28;20544;-74
2022/12/22 05:47:55;;;;;;;29.27;17.50;;;7.10;99.90;;;;;;5069460;28;20219;-73
2022/12/22 05:50:25;;;;;;;29.40;17.33;;;7.10;99.90;;;;;;5069366;28;20195;-74
2022/12/22 05:53:05;;;;;;;34.20;19.03;;;7.10;99.90;;;;;;5069409;27;20241;-74
2022/12/22 05:55:34;;;;;;;30.30;18.27;;;7.10;99.90;;;;;;5069245;27;20592;-75
2022/12/22 05:58:03;;;;;;;36.33;19.47;;;7.10;99.90;;;;;;5138614;27;20575;-74
2022/12/22 06:00:34;;;;;;;30.47;18.80;;;7.10;99.90;;;;;;5069201;28;20253;-73
2022/12/22 06:03:02;;;;;;;27.97;17.30;;;7.10;99.90;;;;;;5069151;28;20243;-74
2022/12/22 06:05:32;;;;;;;31.90;17.83;;;7.10;99.90;;;;;;5069019;28;20205;-74
2022/12/22 06:08:01;;;;;;;28.57;18.10;;;7.10;99.90;;;;;;5069084;28;20193;-75
2022/12/22 06:10:30;;;;;;;33.90;18.40;;;7.10;99.90;;;;;;5067670;28;20653;-74
2022/12/22 06:12:58;;;;;;;32.53;18.63;;;7.20;99.90;;;;;;5068939;28;20189;-75
2022/12/22 06:15:27;;;;;;;34.30;18.70;;;7.20;99.90;;;;;;5068652;28;20244;-74
2022/12/22 06:17:58;;;;;;;30.23;19.30;;;7.20;99.90;;;;;;5068775;28;20205;-73
2022/12/22 06:20:27;;;;;;;32.90;20.33;;;7.20;99.90;;;;;;5069030;28;20254;-73
2022/12/22 06:22:56;;;;;;;32.00;18.63;;;7.10;99.90;;;;;;5068912;28;20198;-73
2022/12/22 06:25:24;;;;;;;29.50;17.93;;;7.10;99.90;;;;;;5068760;28;20189;-74
2022/12/22 06:27:53;;;;;;;29.40;17.90;;;7.10;99.90;;;;;;5068602;28;20209;-74
2022/12/22 06:30:22;;;;;;;30.43;17.93;;;7.10;99.90;;;;;;5068683;28;20258;-74
2022/12/22 06:33:00;;;;;;;36.23;18.60;;;7.10;99.90;;;;;;5068880;27;20197;-74
2022/12/22 06:35:29;;;;;;;29.70;18.07;;;7.10;99.90;;;;;;5068583;28;20233;-74
2022/12/22 06:37:58;;;;;;;27.93;18.47;;;7.10;99.90;;;;;;5068575;28;20539;-74
2022/12/22 06:40:30;;;;;;;28.97;18.00;;;7.10;99.90;;;;;;5068601;28;20207;-73
2022/12/22 06:43:10;;;;;;;31.63;17.67;;;7.00;99.90;;;;;;5068665;28;20926;-74
2022/12/22 06:45:41;;;;;;;25.70;16.53;;;7.00;99.90;;;;;;5068741;28;20197;-75
2022/12/22 06:48:12;;;;;;;30.60;17.37;;;7.00;99.90;;;;;;5068628;28;20666;-74
2022/12/22 06:50:41;;;;;;;29.53;17.00;;;7.00;99.90;;;;;;5068836;27;20236;-74
2022/12/22 06:53:10;;;;;;;29.63;17.10;;;7.10;99.90;;;;;;5068540;28;20254;-75
2022/12/22 06:55:39;;;;;;;29.47;18.07;;;7.10;99.90;;;;;;5068299;28;20229;-75
2022/12/22 06:58:08;;;;;;;29.07;17.03;;;7.10;99.90;;;;;;5068400;28;20197;-75
2022/12/22 07:00:37;;;;;;;26.40;16.77;;;7.10;99.90;;;;;;5068605;28;20571;-74
2022/12/22 07:03:06;;;;;;;26.80;16.67;;;7.10;99.90;;;;;;5068312;28;20194;-75
2022/12/22 07:05:37;;;;;;;30.73;18.27;;;7.10;99.90;;;;;;5068416;28;20203;-74
2022/12/22 07:08:06;;;;;;;25.57;16.70;;;7.10;99.90;;;;;;5068306;28;20204;-74
2022/12/22 07:13:24;;;;;;;29.30;17.83;;;7.10;99.90;;;;;;5068045;27;20193;-74
2022/12/22 07:15:54;;;;;;;26.37;17.43;;;7.00;99.90;;;;;;5067855;28;20225;-74
2022/12/22 07:18:29;;;;;;;28.40;17.40;;;7.00;99.90;;;;;;5137637;27;20225;-75
2022/12/22 07:21:03;;;;;;;24.93;16.47;;;7.10;99.90;;;;;;5068471;28;20190;-75
2022/12/22 07:23:32;;;;;;;26.70;17.27;;;7.00;99.90;;;;;;5071937;27;20207;-75
2022/12/22 07:26:01;;;;;;;25.97;16.87;;;7.00;99.90;;;;;;5071730;28;20189;-76
2022/12/22 07:28:32;;;;;;;26.13;17.20;;;6.90;99.90;;;;;;5071449;28;20189;-74
2022/12/22 07:31:01;;;;;;;26.30;15.63;;;6.90;99.90;;;;;;5071599;28;20585;-76
2022/12/22 07:33:30;;;;;;;23.53;16.43;;;7.00;99.90;;;;;;5071620;28;20212;-77
2022/12/22 07:36:05;;;;;;;25.80;17.00;;;7.00;99.90;;;;;;5071374;28;20686;-75
2022/12/22 07:38:38;;;;;;;28.53;16.40;;;7.00;99.90;;;;;;5071393;28;20215;-75
2022/12/22 07:42:43;;;;;;;25.67;17.03;;;7.00;99.90;;;;;;5071395;28;20197;-74
2022/12/22 07:43:59;;;;;;;24.73;15.83;;;6.90;99.90;;;;;;5141319;27;20632;-75
2022/12/22 07:46:31;;;;;;;28.27;17.23;;;7.00;99.90;;;;;;5071271;28;20198;-75
2022/12/22 07:51:48;;;;;;;24.57;16.27;;;7.00;99.90;;;;;;5071252;28;20189;-76
2022/12/22 07:54:18;;;;;;;28.53;16.30;;;7.00;99.90;;;;;;5071315;27;20200;-76
2022/12/22 07:56:47;;;;;;;26.93;18.03;;;7.00;99.90;;;;;;5070897;28;20205;-73
2022/12/22 07:59:17;;;;;;;28.77;19.23;;;7.00;99.90;;;;;;5140985;27;20201;-77
2022/12/22 08:01:47;;;;;;;28.57;18.00;;;7.10;99.90;;;;;;5071002;28;20205;-73
2022/12/22 08:04:16;;;;;;;31.40;20.13;;;7.00;99.90;;;;;;5071054;28;20210;-76
2022/12/22 08:06:47;;;;;;;28.00;18.07;;;7.00;99.90;;;;;;5071051;28;20238;-76
2022/12/22 08:09:20;;;;;;;29.43;18.73;;;7.10;99.90;;;;;;5049762;28;20209;-74
2022/12/22 08:11:50;;;;;;;29.07;17.97;;;7.20;99.90;;;;;;5049246;28;20205;-77
2022/12/22 08:14:19;;;;;;;28.07;17.70;;;7.20;99.90;;;;;;5039936;28;20232;-77
2022/12/22 08:16:47;;;;;;;25.13;15.90;;;7.20;99.90;;;;;;5050713;28;20246;-76
2022/12/22 08:19:16;;;;;;;26.73;16.93;;;7.10;99.90;;;;;;5050877;28;20198;-75
2022/12/22 08:21:47;;;;;;;26.00;16.53;;;7.10;99.90;;;;;;5050810;28;20229;-75
2022/12/22 08:24:20;;;;;;;28.27;17.97;;;7.00;99.90;;;;;;5077661;28;20200;-71
2022/12/22 08:26:52;;;;;;;29.60;18.40;;;7.10;99.90;;;;;;5069481;28;20221;-74
2022/12/22 08:29:24;;;;;;;29.13;16.97;;;7.10;99.90;;;;;;5050711;28;20247;-75
2022/12/22 08:31:56;;;;;;;28.23;18.23;;;7.10;99.90;;;;;;5050624;28;20201;-75
2022/12/22 08:34:25;;;;;;;27.93;17.40;;;7.20;99.90;;;;;;5058380;28;20268;-75
2022/12/22 08:36:59;;;;;;;24.27;15.50;;;7.10;99.90;;;;;;5069497;28;20217;-75
2022/12/22 08:39:33;;;;;;;31.00;18.83;;;7.10;99.90;;;;;;5050559;28;20192;-75
2022/12/22 08:42:06;;;;;;;29.67;19.17;;;7.10;99.90;;;;;;5049210;28;20200;-74
2022/12/22 08:44:37;;;;;;;31.17;18.23;;;7.10;99.90;;;;;;5060799;28;20201;-78
2022/12/22 08:47:09;;;;;;;27.57;17.37;;;7.10;99.90;;;;;;5070416;27;20591;-80
2022/12/22 08:49:44;;;;;;;27.87;17.33;;;7.20;99.90;;;;;;5070913;28;20617;-78
2022/12/22 08:52:15;;;;;;;23.63;16.43;;;7.30;99.90;;;;;;5070827;28;20197;-78
2022/12/22 08:54:46;;;;;;;38.57;25.73;;;7.30;99.90;;;;;;5070913;27;20230;-79
2022/12/22 08:57:15;;;;;;;51.37;29.23;;;7.30;99.90;;;;;;5067696;28;20220;-76
2022/12/22 08:59:46;;;;;;;56.60;34.07;;;7.40;99.90;;;;;;5060838;28;20628;-77
2022/12/22 09:02:15;;;;;;;30.60;18.40;;;7.50;99.90;;;;;;5070518;28;20200;-78
2022/12/22 09:04:44;;;;;;;35.90;21.90;;;7.50;99.90;;;;;;5054429;28;20675;-78
2022/12/22 09:07:15;;;;;;;26.70;17.33;;;7.50;99.90;;;;;;5050655;28;20198;-79
2022/12/22 09:09:45;;;;;;;32.23;17.93;;;7.40;99.90;;;;;;5050597;28;20218;-78
2022/12/22 09:12:16;;;;;;;30.20;18.70;;;7.40;99.90;;;;;;5050069;28;20190;-76
2022/12/22 09:14:45;;;;;;;29.07;17.67;;;7.40;99.90;;;;;;5050512;27;20317;-78
2022/12/22 09:17:14;;;;;;;28.93;17.67;;;7.50;99.90;;;;;;5070337;28;20224;-79
2022/12/22 09:19:43;;;;;;;38.47;23.77;;;7.60;99.90;;;;;;5070626;27;20224;-79
2022/12/22 09:22:14;;;;;;;35.63;20.77;;;7.60;99.90;;;;;;5070464;27;20241;-78
2022/12/22 09:24:54;;;;;;;32.27;18.90;;;7.70;99.90;;;;;;5069907;28;20551;-78
2022/12/22 09:27:23;;;;;;;35.37;19.53;;;7.70;99.90;;;;;;5069627;28;20219;-80
2022/12/22 09:29:52;;;;;;;29.73;19.00;;;7.80;99.90;;;;;;5070200;28;20650;-80
2022/12/22 09:32:21;;;;;;;31.27;18.70;;;7.70;99.90;;;;;;5070249;28;20189;-81
2022/12/22 09:34:50;;;;;;;33.50;21.60;;;7.70;99.90;;;;;;5069804;28;20245;-78
2022/12/22 09:37:27;;;;;;;33.73;19.10;;;7.70;99.90;;;;;;5070130;28;20237;-79
2022/12/22 09:39:59;;;;;;;36.30;20.67;;;7.80;99.90;;;;;;5069975;28;20662;-77
2022/12/22 09:42:30;;;;;;;29.17;17.70;;;7.90;99.90;;;;;;5069643;28;20245;-77
2022/12/22 09:44:59;;;;;;;42.53;22.70;;;7.90;99.90;;;;;;5069147;28;20304;-76
2022/12/22 09:47:34;;;;;;;32.73;19.00;;;8.00;99.90;;;;;;5054921;28;20284;-76
2022/12/22 09:50:05;;;;;;;28.60;18.60;;;8.10;99.90;;;;;;5049899;28;20220;-75
2022/12/22 09:52:46;;;;;;;34.90;19.63;;;8.40;99.90;;;;;;5049996;28;20800;-74
2022/12/22 09:55:27;;;;;;;31.73;18.87;;;8.40;99.90;;;;;;5049428;28;20567;-76
2022/12/22 09:57:56;;;;;;;29.57;17.67;;;8.40;99.90;;;;;;5049309;28;20222;-74
2022/12/22 10:00:27;;;;;;;27.73;16.13;;;8.40;99.90;;;;;;5031306;28;20705;-75
2022/12/22 10:03:05;;;;;;;31.47;17.90;;;8.40;99.90;;;;;;5052403;28;20224;-76
2022/12/22 10:08:30;;;;;;;29.10;17.47;;;8.40;99.90;;;;;;5047606;28;20217;-76
2022/12/22 10:10:59;;;;;;;27.63;16.70;;;8.40;99.90;;;;;;5049002;28;20213;-77
2022/12/22 10:13:28;;;;;;;30.13;18.13;;;8.40;99.90;;;;;;5048931;27;20708;-77
2022/12/22 10:15:57;;;;;;;27.03;16.90;;;8.40;99.90;;;;;;5031265;28;20205;-76
2022/12/22 10:18:27;;;;;;;30.43;17.93;;;8.40;99.90;;;;;;5048885;28;20243;-75
2022/12/22 10:21:12;;;;;;;31.20;18.17;;;8.30;99.90;;;;;;5049051;28;20198;-74
2022/12/22 10:23:45;;;;;;;34.07;19.10;;;8.30;99.90;;;;;;5049023;28;20190;-75
2022/12/22 10:26:17;;;;;;;29.63;17.37;;;8.30;99.90;;;;;;5048946;28;20195;-75
2022/12/22 10:29:03;;;;;;;28.73;17.33;;;8.40;99.90;;;;;;5048832;28;20293;-75
2022/12/22 10:31:34;;;;;;;32.97;16.20;;;8.40;99.90;;;;;;5048916;28;20190;-75
2022/12/22 10:34:12;;;;;;;27.43;15.97;;;8.60;99.90;;;;;;5048870;28;20205;-75
2022/12/22 10:36:47;;;;;;;23.93;16.27;;;8.60;99.90;;;;;;5048975;28;20672;-75
2022/12/22 10:39:23;;;;;;;26.67;16.60;;;8.60;99.90;;;;;;5048766;28;20254;-75
2022/12/22 10:41:55;;;;;;;26.97;17.23;;;8.60;99.90;;;;;;5048513;28;20637;-75
2022/12/22 10:44:26;;;;;;;29.80;18.77;;;8.60;99.90;;;;;;5048677;28;20198;-76
2022/12/22 10:46:58;;;;;;;52.40;31.10;;;8.70;99.90;;;;;;5048677;28;20201;-75
2022/12/22 10:49:30;;;;;;;29.23;16.63;;;8.70;99.90;;;;;;5048631;28;20201;-76
2022/12/22 10:52:15;;;;;;;29.70;17.47;;;8.70;99.90;;;;;;5048560;28;20268;-76
2022/12/22 10:54:46;;;;;;;26.10;15.67;;;8.70;99.90;;;;;;5048524;28;20190;-76
2022/12/22 10:57:30;;;;;;;25.70;17.17;;;8.80;99.90;;;;;;5050403;28;20237;-75
2022/12/22 11:00:01;;;;;;;24.33;16.70;;;8.80;99.90;;;;;;5052148;28;20190;-75
2022/12/22 11:02:33;;;;;;;22.73;14.53;;;8.90;99.90;;;;;;5051963;28;20194;-75
2022/12/22 11:05:07;;;;;;;24.73;16.17;;;8.90;99.90;;;;;;5052032;28;20194;-75
2022/12/22 11:07:38;;;;;;;23.87;16.20;;;8.90;99.90;;;;;;5051890;28;20194;-76
2022/12/22 11:10:20;;;;;;;28.17;17.53;;;8.90;99.90;;;;;;5051942;28;20583;-75
2022/12/22 11:13:18;;;;;;;24.77;15.83;;;8.80;99.90;;;;;;5051780;28;20190;-77
2022/12/22 11:15:55;;;;;;;31.70;19.30;;;8.80;99.90;;;;;;5136588;27;20195;-80
2022/12/22 11:18:45;;;;;;;26.53;16.27;;;8.80;99.90;;;;;;5118314;27;20244;-77
2022/12/22 11:21:20;;;;;;;57.17;29.80;;;8.90;99.90;;;;;;5136928;27;20191;-78
2022/12/22 11:24:01;;;;;;;52.30;29.33;;;9.00;99.90;;;;;;5136462;27;20268;-79
2022/12/22 11:26:42;;;;;;;26.00;16.53;;;9.00;99.90;;;;;;5136452;27;20195;-77
2022/12/22 11:29:33;;;;;;;27.63;16.33;;;9.00;99.90;;;;;;5136617;27;20194;-77
2022/12/22 11:32:20;;;;;;;28.73;15.93;;;8.90;99.90;;;;;;5136215;27;20244;-78
2022/12/22 11:34:58;;;;;;;25.53;17.37;;;8.80;99.90;;;;;;5136475;27;20195;-77
2022/12/22 11:37:35;;;;;;;28.30;16.80;;;8.90;99.90;;;;;;5136158;27;20247;-75
2022/12/22 11:40:13;;;;;;;22.77;15.97;;;9.00;99.90;;;;;;5136102;27;20638;-75
2022/12/22 11:42:54;;;;;;;23.80;16.03;;;9.10;99.90;;;;;;5136178;27;20196;-75
2022/12/22 11:45:40;;;;;;;24.77;15.70;;;9.00;99.90;;;;;;5136139;27;20195;-75
2022/12/22 11:48:31;;;;;;;24.27;16.30;;;8.90;99.90;;;;;;5136074;27;20244;-74
2022/12/22 11:51:08;;;;;;;24.67;15.40;;;8.80;99.90;;;;;;5135938;27;20553;-75
2022/12/22 11:54:00;;;;;;;26.13;16.47;;;8.70;99.90;;;;;;5135886;27;20259;-74
2022/12/22 11:56:37;;;;;;;22.97;15.83;;;8.70;99.90;;;;;;5135651;27;20559;-74
2022/12/22 11:59:26;;;;;;;34.47;21.47;;;8.70;99.90;;;;;;5135802;27;20599;-74
2022/12/22 12:02:23;;;;;;;23.97;16.00;;;8.70;99.90;;;;;;5135887;27;20191;-75
2022/12/22 12:05:18;;;;;;;24.50;16.13;;;8.60;99.90;;;;;;5117239;27;20660;-74
2022/12/22 12:07:52;;;;;;;25.17;17.33;;;8.60;99.90;;;;;;5118315;27;21542;-74
2022/12/22 12:10:25;;;;;;;24.83;16.70;;;8.60;99.90;;;;;;5128815;27;20195;-73
2022/12/22 12:12:59;;;;;;;26.93;17.73;;;8.70;99.90;;;;;;5135304;27;20290;-74
2022/12/22 12:15:36;;;;;;;30.37;17.93;;;8.80;99.90;;;;;;5056829;27;20285;-75
2022/12/22 12:18:24;;;;;;;27.50;17.20;;;8.80;99.90;;;;;;5051181;28;20711;-75
2022/12/22 12:21:20;;;;;;;27.40;17.80;;;8.80;99.90;;;;;;5050786;28;20210;-74
2022/12/22 12:24:15;;;;;;;28.90;17.60;;;8.80;99.90;;;;;;5050635;28;20213;-74
2022/12/22 12:26:54;;;;;;;28.83;17.27;;;8.80;99.90;;;;;;5050782;28;20544;-74
2022/12/22 12:29:25;;;;;;;25.53;17.53;;;8.90;99.90;;;;;;5050880;28;20194;-74
2022/12/22 12:32:01;;;;;;;26.97;16.90;;;9.00;99.90;;;;;;5056688;28;20216;-75
2022/12/22 12:34:33;;;;;;;25.17;16.80;;;9.00;99.90;;;;;;5082833;28;20195;-75
2022/12/22 12:37:08;;;;;;;27.10;17.07;;;9.00;99.90;;;;;;5090826;28;20215;-75
2022/12/22 12:39:47;;;;;;;26.67;17.33;;;9.00;99.90;;;;;;5090812;28;20226;-74
2022/12/22 12:42:26;;;;;;;23.97;16.40;;;8.90;99.90;;;;;;5090591;28;20677;-73
2022/12/22 12:44:55;;;;;;;28.40;17.37;;;8.90;99.90;;;;;;5090675;28;20209;-73
2022/12/22 12:47:27;;;;;;;25.10;17.00;;;9.00;99.90;;;;;;5090758;28;20188;-74
2022/12/22 12:50:30;;;;;;;29.50;17.53;;;9.00;99.90;;;;;;5090615;28;20205;-74
2022/12/22 12:53:10;;;;;;;26.00;17.27;;;9.00;99.90;;;;;;5090527;28;20197;-75
2022/12/22 12:55:57;;;;;;;27.93;16.67;;;9.10;99.90;;;;;;5072574;27;20213;-75
2022/12/22 12:59:01;;;;;;;34.77;20.87;;;9.00;99.90;;;;;;5090472;28;20245;-75
2022/12/22 13:01:55;;;;;;;29.73;18.43;;;9.00;99.90;;;;;;4985351;28;20220;-73
2022/12/22 13:05:12;;;;;;;22.50;15.87;;;9.10;99.90;;;;;;4988855;28;20204;-75
2022/12/22 13:08:17;;;;;;;23.73;15.63;;;9.00;99.90;;;;;;4988966;28;20200;-75
2022/12/22 13:11:03;;;;;;;23.50;15.87;;;9.00;99.90;;;;;;4988903;28;20610;-75
2022/12/22 13:13:49;;;;;;;27.13;17.20;;;9.00;99.90;;;;;;4985051;28;20751;-74
2022/12/22 13:16:35;;;;;;;27.10;16.63;;;9.00;99.90;;;;;;4989171;28;20610;-76
2022/12/22 13:19:13;;;;;;;29.93;17.47;;;9.00;99.90;;;;;;4988179;28;20728;-75
2022/12/22 13:21:45;;;;;;;28.07;17.77;;;9.00;99.90;;;;;;4988684;28;20208;-73
2022/12/22 13:24:27;;;;;;;23.63;16.23;;;9.10;99.90;;;;;;5009446;28;20300;-74
2022/12/22 13:27:05;;;;;;;27.83;16.43;;;9.00;99.90;;;;;;4996031;28;20197;-74
2022/12/22 13:29:43;;;;;;;23.00;16.07;;;9.00;99.90;;;;;;4988464;28;20231;-74
2022/12/22 13:32:22;;;;;;;19.50;13.73;;;9.00;99.90;;;;;;4988498;28;20224;-74
2022/12/22 13:34:58;;;;;;;25.30;15.80;;;8.90;99.90;;;;;;4988271;28;20803;-73
2022/12/22 13:37:48;;;;;;;24.57;16.13;;;8.90;99.90;;;;;;5005892;28;20554;-73
2022/12/22 13:40:20;;;;;;;24.67;16.70;;;9.00;99.90;;;;;;5069497;28;20235;-73
2022/12/22 13:42:54;;;;;;;22.43;15.70;;;9.00;99.90;;;;;;5069486;28;20293;-72
2022/12/22 13:45:37;;;;;;;22.83;15.90;;;9.00;99.90;;;;;;5049233;28;20209;-72
2022/12/22 13:48:09;;;;;;;23.57;15.80;;;9.00;99.90;;;;;;5048686;28;20213;-74
2022/12/22 13:50:43;;;;;;;20.73;14.73;;;9.00;99.90;;;;;;5029629;28;20203;-73
2022/12/22 13:53:18;;;;;;;22.23;15.90;;;9.00;99.90;;;;;;5029615;28;20207;-74
2022/12/22 13:56:08;;;;;;;19.23;13.97;;;8.90;99.90;;;;;;5029252;28;20186;-74
2022/12/22 13:58:43;;;;;;;22.37;15.30;;;8.90;99.90;;;;;;5029308;28;20215;-73
2022/12/22 14:01:18;;;;;;;20.37;15.70;;;8.70;99.90;;;;;;5029526;28;20277;-74
2022/12/22 14:03:49;;;;;;;18.53;13.83;;;8.70;99.90;;;;;;5029477;28;20198;-74
2022/12/22 14:06:30;;;;;;;19.47;14.53;;;8.60;99.90;;;;;;5029045;28;20207;-74
2022/12/22 14:09:13;;;;;;;19.70;13.87;;;8.70;99.90;;;;;;5029380;28;20678;-72
2022/12/22 14:11:44;;;;;;;19.70;13.90;;;8.70;99.90;;;;;;5029459;28;20217;-74
2022/12/22 14:14:23;;;;;;;17.60;13.90;;;8.60;99.90;;;;;;5048649;27;20321;-73
2022/12/22 14:16:54;;;;;;;22.80;16.03;;;8.60;99.90;;;;;;5068902;27;20221;-75
2022/12/22 14:19:25;;;;;;;21.10;14.27;;;8.60;99.90;;;;;;5068868;28;20225;-73
2022/12/22 14:22:04;;;;;;;18.40;13.87;;;8.40;99.90;;;;;;5068871;28;20707;-74
2022/12/22 14:24:40;;;;;;;20.13;14.33;;;8.40;99.90;;;;;;5067859;28;20193;-73
2022/12/22 14:27:18;;;;;;;19.87;14.13;;;8.40;99.90;;;;;;5067868;27;20304;-74
2022/12/22 14:29:49;;;;;;;21.63;15.43;;;8.40;99.90;;;;;;5067989;28;20201;-74
2022/12/22 14:32:38;;;;;;;19.63;15.20;;;8.30;99.90;;;;;;5067057;28;20674;-73
2022/12/22 14:35:30;;;;;;;21.87;14.70;;;8.40;99.90;;;;;;5067908;28;20261;-73
2022/12/22 14:38:21;;;;;;;23.30;15.20;;;8.50;99.90;;;;;;5092477;27;20199;-73
2022/12/22 14:40:51;;;;;;;22.63;16.27;;;8.30;99.90;;;;;;5067626;27;20276;-72
2022/12/22 14:43:28;;;;;;;25.43;16.60;;;8.30;99.90;;;;;;5055616;27;20182;-74
2022/12/22 14:46:10;;;;;;;25.10;16.43;;;8.20;99.90;;;;;;5047748;28;20202;-73
2022/12/22 14:48:45;;;;;;;27.00;17.17;;;8.20;99.90;;;;;;5047463;28;20206;-73
2022/12/22 14:51:17;;;;;;;27.53;18.07;;;8.10;99.90;;;;;;5047604;28;20201;-74
2022/12/22 14:53:50;;;;;;;25.80;18.23;;;8.00;99.90;;;;;;5046347;28;20214;-73
2022/12/22 14:56:19;;;;;;;28.30;18.63;;;8.10;99.90;;;;;;5047646;28;20209;-72
2022/12/22 14:58:49;;;;;;;26.13;17.97;;;8.10;99.90;;;;;;5047176;28;20202;-73
2022/12/22 15:01:23;;;;;;;25.80;16.83;;;8.10;99.90;;;;;;5047566;28;20727;-73
2022/12/22 15:04:16;;;;;;;27.57;17.17;;;8.10;99.90;;;;;;5047604;27;20205;-72
2022/12/22 15:06:47;;;;;;;23.47;17.60;;;8.10;99.90;;;;;;5047556;28;20206;-74
2022/12/22 15:09:28;;;;;;;26.83;17.57;;;8.20;99.90;;;;;;5047327;28;20254;-74
2022/12/22 15:12:18;;;;;;;30.90;18.10;;;8.10;99.90;;;;;;5047827;27;20262;-74
2022/12/22 15:14:47;;;;;;;27.50;18.23;;;8.00;99.90;;;;;;5078661;27;20649;-73
2022/12/22 15:17:22;;;;;;;25.00;18.27;;;7.90;99.90;;;;;;5148382;27;20274;-74
2022/12/22 15:19:51;;;;;;;26.07;17.83;;;8.00;99.90;;;;;;5152566;27;20309;-73
2022/12/22 15:22:20;;;;;;;26.57;18.57;;;8.00;99.90;;;;;;5152238;27;20605;-74
2022/12/22 15:24:49;;;;;;;27.67;18.73;;;8.00;99.90;;;;;;5151727;27;20194;-74
2022/12/22 15:27:18;;;;;;;26.07;17.73;;;7.90;99.90;;;;;;5151750;27;20206;-73
2022/12/22 15:29:47;;;;;;;26.53;19.40;;;8.00;99.90;;;;;;5151762;27;20291;-74
2022/12/22 15:32:15;;;;;;;26.63;17.87;;;8.10;99.90;;;;;;5152087;27;20191;-73
2022/12/22 15:34:46;;;;;;;26.47;18.40;;;8.20;99.90;;;;;;5151863;27;20194;-74
2022/12/22 15:37:15;;;;;;;28.47;19.10;;;8.10;99.90;;;;;;5152051;27;20277;-75
2022/12/22 15:39:43;;;;;;;24.97;18.73;;;8.10;99.90;;;;;;5151521;27;20238;-74
2022/12/22 15:42:12;;;;;;;27.43;18.40;;;8.10;99.90;;;;;;5152733;27;20250;-75
2022/12/22 15:44:41;;;;;;;26.37;19.03;;;8.10;99.90;;;;;;5155892;27;20198;-74
2022/12/22 15:47:11;;;;;;;25.17;18.13;;;8.00;99.90;;;;;;5074688;27;20219;-74
2022/12/22 15:49:40;;;;;;;25.27;18.77;;;8.00;99.90;;;;;;5050233;28;20199;-74
2022/12/22 15:52:13;;;;;;;25.73;18.93;;;8.00;99.90;;;;;;5050428;28;20270;-73
2022/12/22 15:54:42;;;;;;;26.97;18.90;;;8.00;99.90;;;;;;5050227;27;20209;-74
2022/12/22 15:57:14;;;;;;;27.43;18.77;;;8.00;99.90;;;;;;5050302;28;20197;-74
2022/12/22 15:59:43;;;;;;;27.93;17.97;;;8.00;99.90;;;;;;5049913;28;20210;-75
2022/12/22 16:02:12;;;;;;;23.57;16.90;;;8.10;99.90;;;;;;5050204;28;20218;-74
2022/12/22 16:04:42;;;;;;;23.13;17.70;;;8.10;99.90;;;;;;5050101;28;20703;-74
2022/12/22 16:07:13;;;;;;;25.63;20.00;;;8.10;99.90;;;;;;5050003;28;20675;-74
2022/12/22 16:09:45;;;;;;;27.43;19.37;;;8.00;99.90;;;;;;5049725;28;20213;-74
2022/12/22 16:12:15;;;;;;;27.37;19.13;;;8.00;99.90;;;;;;5050223;28;20571;-75
2022/12/22 16:14:46;;;;;;;27.03;19.07;;;8.00;99.90;;;;;;5074572;28;20236;-73
2022/12/22 16:17:19;;;;;;;29.77;20.77;;;7.90;99.90;;;;;;5089782;28;20203;-73
2022/12/22 16:19:48;;;;;;;29.13;20.90;;;7.90;99.90;;;;;;5089839;28;20207;-75
2022/12/22 16:22:21;;;;;;;27.77;19.93;;;7.90;99.90;;;;;;5090233;28;20279;-74
2022/12/22 16:24:51;;;;;;;28.53;20.63;;;7.90;99.90;;;;;;5089870;28;20203;-73
2022/12/22 16:27:19;;;;;;;30.23;20.90;;;7.90;99.90;;;;;;5089932;28;20685;-74
2022/12/22 16:29:52;;;;;;;31.80;21.60;;;8.00;99.90;;;;;;5089364;28;20229;-74
2022/12/22 16:32:25;;;;;;;29.00;20.43;;;8.00;99.90;;;;;;5090107;28;20245;-73
2022/12/22 16:34:54;;;;;;;26.13;18.47;;;8.00;99.90;;;;;;5089914;28;20215;-74
2022/12/22 16:37:24;;;;;;;23.23;17.63;;;8.00;99.90;;;;;;5090104;28;20276;-73
2022/12/22 16:39:53;;;;;;;25.90;18.20;;;7.90;99.90;;;;;;5089559;28;20660;-72
2022/12/22 16:42:22;;;;;;;26.70;19.07;;;7.90;99.90;;;;;;5089859;28;20257;-74
2022/12/22 16:45:19;;;;;;;27.63;18.47;;;7.90;99.90;;;;;;5089677;28;20260;-74
2022/12/22 16:47:51;;;;;;;28.93;20.40;;;7.90;99.90;;;;;;5089617;28;20607;-74
2022/12/22 16:50:31;;;;;;;27.33;19.57;;;8.00;99.90;;;;;;5065284;27;20194;-74
2022/12/22 16:53:02;;;;;;;28.50;20.43;;;8.00;99.90;;;;;;5063715;28;20678;-74
2022/12/22 16:55:32;;;;;;;29.07;21.33;;;8.00;99.90;;;;;;5048519;28;20191;-73